Time;durP1;ratioP1;P1;durP2;ratioP2;P2;SDS_P1;SDS_P2;PMS_P1;PMS_P2;Temp;Humidity;BMP_temperature;BMP_pressure;BME280_temperature;BME280_humidity;BME280_pressure;Samples;Min_cycle;Max_cycle;Signal;HPM_P1;HPM_P2
2021/12/07 17:31:27;;;;;;;43.90;5.82;;;;;;;;;;5067062;28;20375;-67
2021/12/07 17:33:53;;;;;;;37.70;7.28;;;;;;;;;;5067567;28;20484;-67
2021/12/07 17:36:20;;;;;;;57.42;10.00;;;;;;;;;;5080878;28;20028;-68
2021/12/07 17:38:48;;;;;;;43.17;9.10;;;;;;;;;;5073893;28;20020;-67
2021/12/07 17:41:14;;;;;;;36.50;6.68;;;;;;;;;;5073748;28;20028;-68
2021/12/07 17:43:40;;;;;;;52.60;10.85;;;;;;;;;;5069673;28;20048;-69
2021/12/07 17:46:07;;;;;;;37.90;8.27;;;;;;;;;;5075717;28;20039;-68
2021/12/07 17:48:33;;;;;;;40.13;7.35;;;;;;;;;;5078854;28;20028;-68
2021/12/07 17:50:59;;;;;;;58.33;9.25;;;;;;;;;;5076623;28;20072;-68
2021/12/07 17:53:25;;;;;;;57.15;8.80;;;;;;;;;;5070846;28;20028;-68
2021/12/07 17:55:51;;;;;;;69.78;15.70;;;;;;;;;;5078243;28;20391;-68
2021/12/07 17:58:18;;;;;;;50.80;15.30;;;;;;;;;;5076706;28;20041;-67
2021/12/07 18:00:46;;;;;;;53.15;11.30;;;;;;;;;;5084072;28;20024;-68
2021/12/07 18:03:13;;;;;;;42.53;11.15;;;;;;;;;;5077781;28;20404;-67
2021/12/07 18:05:39;;;;;;;47.03;9.63;;;;;;;;;;5066624;28;20510;-68
2021/12/07 18:08:05;;;;;;;40.83;8.13;;;;;;;;;;5085681;28;20051;-68
2021/12/07 18:10:31;;;;;;;34.95;9.82;;;;;;;;;;5075345;28;20476;-69
2021/12/07 18:12:59;;;;;;;45.83;9.95;;;;;;;;;;5073504;28;20373;-67
2021/12/07 18:15:26;;;;;;;41.60;8.02;;;;;;;;;;5071411;28;20022;-68
2021/12/07 18:17:53;;;;;;;47.80;8.25;;;;;;;;;;5074445;28;20471;-67
2021/12/07 18:20:20;;;;;;;28.90;6.40;;;;;;;;;;5070996;28;20029;-67
2021/12/07 18:22:46;;;;;;;35.63;5.90;;;;;;;;;;5077250;28;20038;-69
2021/12/07 18:25:12;;;;;;;39.58;6.65;;;;;;;;;;5068310;28;20021;-69
2021/12/07 18:27:39;;;;;;;44.85;7.75;;;;;;;;;;5077078;28;20174;-68
2021/12/07 18:30:05;;;;;;;34.17;6.05;;;;;;;;;;5069459;28;20399;-67
2021/12/07 18:32:32;;;;;;;24.65;5.50;;;;;;;;;;5066711;28;20060;-67
2021/12/07 18:34:58;;;;;;;30.67;6.70;;;;;;;;;;5075304;28;20026;-67
2021/12/07 18:37:24;;;;;;;40.95;9.20;;;;;;;;;;5069008;28;20032;-66
2021/12/07 18:39:50;;;;;;;27.95;5.63;;;;;;;;;;5072804;28;20479;-68
2021/12/07 18:42:16;;;;;;;36.90;7.60;;;;;;;;;;5064602;28;20532;-67
2021/12/07 18:44:42;;;;;;;43.28;7.43;;;;;;;;;;5064610;28;20031;-68
2021/12/07 18:47:08;;;;;;;32.90;6.50;;;;;;;;;;5062646;28;20399;-66
2021/12/07 18:49:34;;;;;;;29.38;7.40;;;;;;;;;;5060436;28;20487;-67
2021/12/07 18:52:00;;;;;;;22.98;5.45;;;;;;;;;;5056012;28;20506;-67
2021/12/07 18:54:28;;;;;;;17.02;4.07;;;;;;;;;;5056648;28;20029;-67
2021/12/07 18:56:54;;;;;;;21.98;3.65;;;;;;;;;;5072506;28;20575;-68
2021/12/07 18:59:20;;;;;;;13.77;3.53;;;;;;;;;;5063346;28;20021;-67
2021/12/07 19:01:47;;;;;;;19.25;4.78;;;;;;;;;;5050293;28;20033;-68
2021/12/07 19:04:13;;;;;;;13.63;3.55;;;;;;;;;;5064032;28;20055;-68
2021/12/07 19:06:39;;;;;;;18.13;4.28;;;;;;;;;;5051905;28;20029;-68
2021/12/07 19:09:08;;;;;;;18.35;3.25;;;;;;;;;;5051570;28;20025;-68
2021/12/07 19:11:34;;;;;;;18.63;4.70;;;;;;;;;;5052229;28;20049;-70
2021/12/07 19:14:02;;;;;;;33.55;8.57;;;;;;;;;;5051740;28;20411;-69
2021/12/07 19:16:28;;;;;;;24.45;4.15;;;;;;;;;;5051172;28;20036;-69
2021/12/07 19:18:54;;;;;;;22.83;4.47;;;;;;;;;;5051589;28;20388;-68
2021/12/07 19:21:20;;;;;;;29.02;4.93;;;;;;;;;;5049947;28;20467;-67
2021/12/07 19:23:46;;;;;;;13.57;3.38;;;;;;;;;;5038140;28;20029;-70
2021/12/07 19:26:13;;;;;;;19.13;3.92;;;;;;;;;;5038204;28;20052;-67
2021/12/07 19:28:40;;;;;;;12.57;3.00;;;;;;;;;;5063905;28;20028;-68
2021/12/07 19:31:06;;;;;;;18.13;3.63;;;;;;;;;;5059157;28;20092;-70
2021/12/07 19:33:32;;;;;;;16.95;5.45;;;;;;;;;;5051693;28;20228;-68
2021/12/07 19:35:59;;;;;;;14.65;3.75;;;;;;;;;;5050667;28;20041;-68
2021/12/07 19:38:25;;;;;;;12.10;2.67;;;;;;;;;;5051094;28;20128;-68
2021/12/07 19:40:52;;;;;;;12.10;3.10;;;;;;;;;;5051513;28;20025;-66
2021/12/07 19:43:18;;;;;;;26.67;4.40;;;;;;;;;;5065289;28;20107;-68
2021/12/07 19:45:45;;;;;;;11.88;3.20;;;;;;;;;;5059281;28;20021;-68
2021/12/07 19:48:11;;;;;;;20.55;4.57;;;;;;;;;;5058552;28;20025;-68
2021/12/07 19:50:47;;;;;;;21.20;3.90;;;;;;;;;;5061095;28;20232;-68
2021/12/07 19:53:14;;;;;;;24.30;3.88;;;;;;;;;;5053596;28;20032;-68
2021/12/07 19:55:41;;;;;;;24.13;5.95;;;;;;;;;;5055675;28;20411;-68
2021/12/07 19:58:07;;;;;;;36.30;4.55;;;;;;;;;;5061651;28;20091;-70
2021/12/07 20:00:35;;;;;;;26.80;5.72;;;;;;;;;;5061625;28;20032;-67
2021/12/07 20:03:01;;;;;;;35.45;6.05;;;;;;;;;;5060889;28;20092;-67
2021/12/07 20:05:28;;;;;;;30.20;5.50;;;;;;;;;;5057933;28;20033;-69
2021/12/07 20:07:58;;;;;;;30.73;5.28;;;;;;;;;;5056161;28;20029;-68
2021/12/07 20:10:24;;;;;;;29.75;4.55;;;;;;;;;;5051631;28;20083;-69
2021/12/07 20:12:50;;;;;;;30.42;4.40;;;;;;;;;;5050909;28;20468;-68
2021/12/07 20:15:16;;;;;;;26.17;5.78;;;;;;;;;;5051069;28;20464;-69
2021/12/07 20:17:42;;;;;;;30.13;6.22;;;;;;;;;;5057102;28;20078;-67
2021/12/07 20:20:09;;;;;;;31.42;4.93;;;;;;;;;;5056135;28;20435;-68
2021/12/07 20:22:35;;;;;;;30.50;4.80;;;;;;;;;;5050794;28;20033;-67
2021/12/07 20:25:03;;;;;;;31.85;5.75;;;;;;;;;;5070709;28;20128;-68
2021/12/07 20:27:29;;;;;;;30.13;4.53;;;;;;;;;;5066074;28;20059;-67
2021/12/07 20:29:55;;;;;;;25.48;4.32;;;;;;;;;;5060968;28;20186;-69
2021/12/07 20:32:21;;;;;;;15.68;3.22;;;;;;;;;;5070128;28;20031;-69
2021/12/07 20:34:48;;;;;;;24.90;5.97;;;;;;;;;;5064675;28;20029;-69
2021/12/07 20:37:15;;;;;;;15.30;3.40;;;;;;;;;;5051060;28;20024;-69
2021/12/07 20:39:42;;;;;;;29.88;4.45;;;;;;;;;;5052518;28;20116;-68
2021/12/07 20:42:08;;;;;;;19.08;4.95;;;;;;;;;;5050845;28;20024;-68
2021/12/07 20:44:34;;;;;;;30.85;4.78;;;;;;;;;;5048280;28;20029;-70
2021/12/07 20:47:01;;;;;;;15.38;4.22;;;;;;;;;;5057052;28;20013;-68
2021/12/07 20:49:29;;;;;;;17.85;4.00;;;;;;;;;;5064641;28;20029;-68
2021/12/07 20:51:56;;;;;;;23.77;5.03;;;;;;;;;;5048939;28;20032;-68
2021/12/07 20:54:22;;;;;;;26.75;4.25;;;;;;;;;;5049986;28;20095;-68
2021/12/07 20:56:48;;;;;;;24.23;3.55;;;;;;;;;;5050020;28;20483;-68
2021/12/07 20:59:15;;;;;;;21.08;4.10;;;;;;;;;;5050894;28;20038;-69
2021/12/07 21:01:41;;;;;;;14.50;3.80;;;;;;;;;;5050115;28;20432;-68
2021/12/07 21:04:07;;;;;;;14.90;4.00;;;;;;;;;;5049203;28;20021;-68
2021/12/07 21:06:33;;;;;;;76.88;32.83;;;;;;;;;;5051897;28;20055;-68
2021/12/07 21:08:59;;;;;;;26.50;5.70;;;;;;;;;;5062121;28;20145;-67
2021/12/07 21:11:25;;;;;;;34.58;12.27;;;;;;;;;;5069940;28;20051;-68
2021/12/07 21:13:52;;;;;;;21.90;6.05;;;;;;;;;;5048441;28;20487;-68
2021/12/07 21:16:19;;;;;;;22.40;5.55;;;;;;;;;;5060218;28;20032;-68
2021/12/07 21:18:45;;;;;;;17.13;4.68;;;;;;;;;;5069300;28;20028;-68
2021/12/07 21:21:11;;;;;;;12.55;2.78;;;;;;;;;;5054932;28;20033;-68
2021/12/07 21:23:37;;;;;;;19.17;3.40;;;;;;;;;;5037491;28;20029;-68
2021/12/07 21:26:03;;;;;;;13.48;2.83;;;;;;;;;;5069783;28;20025;-68
2021/12/07 21:28:30;;;;;;;18.05;2.33;;;;;;;;;;5059967;28;20784;-67
2021/12/07 21:30:56;;;;;;;17.48;2.90;;;;;;;;;;5048962;28;20496;-68
2021/12/07 21:33:22;;;;;;;20.08;2.70;;;;;;;;;;5048503;28;20052;-69
2021/12/07 21:35:48;;;;;;;19.33;3.10;;;;;;;;;;5048520;28;20028;-68
2021/12/07 21:38:14;;;;;;;30.60;3.75;;;;;;;;;;5049253;28;20021;-68
2021/12/07 21:40:40;;;;;;;34.00;3.42;;;;;;;;;;5050708;28;20029;-68
2021/12/07 21:43:06;;;;;;;22.08;3.20;;;;;;;;;;5061831;28;20028;-68
2021/12/07 21:45:33;;;;;;;25.92;4.32;;;;;;;;;;5048114;28;20062;-68
2021/12/07 21:47:59;;;;;;;28.83;5.78;;;;;;;;;;5049273;28;20114;-69
2021/12/07 21:50:28;;;;;;;30.17;4.15;;;;;;;;;;5048659;28;20055;-67
2021/12/07 21:52:57;;;;;;;26.52;3.42;;;;;;;;;;5049431;28;20013;-69
2021/12/07 21:55:23;;;;;;;28.17;4.47;;;;;;;;;;5049391;28;20025;-68
2021/12/07 21:57:50;;;;;;;9.55;2.67;;;;;;;;;;5055619;28;20028;-66
2021/12/07 22:00:17;;;;;;;16.65;2.97;;;;;;;;;;5051792;28;20026;-67
2021/12/07 22:02:43;;;;;;;18.83;3.40;;;;;;;;;;5048558;28;20116;-67
2021/12/07 22:05:10;;;;;;;24.40;3.83;;;;;;;;;;5049207;28;20068;-67
2021/12/07 22:07:36;;;;;;;26.50;3.30;;;;;;;;;;5049317;28;20033;-67
2021/12/07 22:10:05;;;;;;;27.27;3.80;;;;;;;;;;5049682;28;20353;-70
2021/12/07 22:12:31;;;;;;;45.10;4.97;;;;;;;;;;5047228;28;20721;-67
2021/12/07 22:14:57;;;;;;;28.08;4.75;;;;;;;;;;5047831;28;20332;-69
2021/12/07 22:17:23;;;;;;;33.08;4.00;;;;;;;;;;5050747;28;20487;-67
2021/12/07 22:19:50;;;;;;;24.85;5.63;;;;;;;;;;5063018;28;20037;-67
2021/12/07 22:22:16;;;;;;;35.63;5.57;;;;;;;;;;5054317;28;20033;-67
2021/12/07 22:24:42;;;;;;;25.73;3.55;;;;;;;;;;5053095;28;20017;-67
2021/12/07 22:27:09;;;;;;;27.80;4.10;;;;;;;;;;5053209;28;20037;-67
2021/12/07 22:29:36;;;;;;;26.08;3.88;;;;;;;;;;5067535;28;20424;-66
2021/12/07 22:32:02;;;;;;;19.63;4.28;;;;;;;;;;5057635;28;20424;-66
2021/12/07 22:34:30;;;;;;;37.83;4.82;;;;;;;;;;5052314;28;20450;-66
2021/12/07 22:36:58;;;;;;;27.83;3.58;;;;;;;;;;5052875;28;20086;-67
2021/12/07 22:39:24;;;;;;;31.05;3.13;;;;;;;;;;5057734;28;20023;-67
2021/12/07 22:41:50;;;;;;;20.80;3.80;;;;;;;;;;5071342;28;20468;-67
2021/12/07 22:44:16;;;;;;;32.17;4.03;;;;;;;;;;5059500;28;20025;-67
2021/12/07 22:46:42;;;;;;;27.45;3.50;;;;;;;;;;5052305;28;20495;-68
2021/12/07 22:49:09;;;;;;;28.55;3.50;;;;;;;;;;5060142;28;20017;-68
2021/12/07 22:51:35;;;;;;;33.90;3.83;;;;;;;;;;5068045;28;20476;-68
2021/12/07 22:54:02;;;;;;;34.50;4.85;;;;;;;;;;5072374;28;20028;-68
2021/12/07 22:56:28;;;;;;;21.10;3.92;;;;;;;;;;5068547;28;20063;-68
2021/12/07 22:58:54;;;;;;;24.70;3.95;;;;;;;;;;5053450;28;20020;-68
2021/12/07 23:01:20;;;;;;;32.85;4.43;;;;;;;;;;5063085;28;20029;-69
2021/12/07 23:03:46;;;;;;;35.85;3.42;;;;;;;;;;5050541;28;20025;-68
2021/12/07 23:06:13;;;;;;;28.90;3.92;;;;;;;;;;5055677;28;20059;-68
2021/12/07 23:08:39;;;;;;;22.13;3.60;;;;;;;;;;5051469;28;20476;-69
2021/12/07 23:11:08;;;;;;;35.60;3.78;;;;;;;;;;5052023;28;20029;-68
